Time;durP1;ratioP1;P1;durP2;ratioP2;P2;SDS_P1;SDS_P2;PMS_P1;PMS_P2;Temp;Humidity;BMP_temperature;BMP_pressure;BME280_temperature;BME280_humidity;BME280_pressure;Samples;Min_cycle;Max_cycle;Signal;HPM_P1;HPM_P2
2023/08/04 00:01:14;;;;;;;1.40;0.32;;;19.80;99.90;;;;;;5052068;28;20079;-41
2023/08/04 00:03:40;;;;;;;1.85;0.45;;;19.80;99.90;;;;;;5052001;28;20492;-40
2023/08/04 00:06:09;;;;;;;1.40;0.38;;;19.80;99.90;;;;;;5051934;28;20029;-40
2023/08/04 00:08:35;;;;;;;0.70;0.30;;;19.80;99.90;;;;;;5051854;28;20032;-40
2023/08/04 00:11:01;;;;;;;1.52;0.40;;;19.80;99.90;;;;;;5051779;28;20029;-41
2023/08/04 00:13:27;;;;;;;1.23;0.52;;;19.80;99.90;;;;;;5051828;28;20464;-41
2023/08/04 00:15:53;;;;;;;0.63;0.40;;;19.80;99.90;;;;;;5051868;28;20096;-40
2023/08/04 00:18:18;;;;;;;0.60;0.35;;;19.80;99.90;;;;;;5051226;28;20021;-40
2023/08/04 00:20:44;;;;;;;0.40;0.30;;;19.80;99.90;;;;;;5051449;28;20056;-40
2023/08/04 00:23:09;;;;;;;1.65;0.50;;;19.80;99.90;;;;;;5051450;28;20048;-40
2023/08/04 00:25:35;;;;;;;1.08;0.40;;;19.80;99.90;;;;;;5051675;28;20024;-41
2023/08/04 00:28:01;;;;;;;2.25;0.57;;;19.80;99.90;;;;;;5051697;28;20021;-41
2023/08/04 00:30:27;;;;;;;0.50;0.35;;;19.80;99.90;;;;;;5051460;28;20028;-41
2023/08/04 00:32:53;;;;;;;0.90;0.40;;;19.80;99.90;;;;;;5051445;28;20470;-41
2023/08/04 00:35:19;;;;;;;0.98;0.30;;;19.80;99.90;;;;;;5051498;28;20021;-38
2023/08/04 00:37:45;;;;;;;1.10;0.40;;;19.80;99.90;;;;;;5051411;28;20025;-40
2023/08/04 00:40:11;;;;;;;1.30;0.43;;;19.80;99.90;;;;;;5051252;28;20040;-41
2023/08/04 00:42:36;;;;;;;0.73;0.30;;;19.80;99.90;;;;;;5051343;28;20025;-40
2023/08/04 00:45:04;;;;;;;1.73;0.50;;;19.80;99.90;;;;;;5051370;28;20447;-38
2023/08/04 00:47:35;;;;;;;1.17;0.40;;;19.80;99.90;;;;;;5051413;28;20257;-41
2023/08/04 00:50:04;;;;;;;2.05;0.60;;;19.80;99.90;;;;;;5051134;28;20024;-40
2023/08/04 00:52:30;;;;;;;2.97;0.32;;;19.80;99.90;;;;;;5051191;28;20025;-43
2023/08/04 00:54:56;;;;;;;3.55;0.60;;;19.80;99.90;;;;;;5051225;28;20471;-39
2023/08/04 00:57:22;;;;;;;2.00;0.55;;;19.80;99.90;;;;;;5051173;28;20095;-41
2023/08/04 00:59:48;;;;;;;1.90;0.50;;;19.80;99.90;;;;;;5050923;28;20025;-41
2023/08/04 01:02:13;;;;;;;1.48;0.52;;;19.80;99.90;;;;;;5051206;28;20032;-39
2023/08/04 01:04:39;;;;;;;1.65;0.50;;;19.80;99.90;;;;;;5051033;28;20033;-41
2023/08/04 01:07:45;;;;;;;1.10;0.50;;;19.70;99.90;;;;;;5051112;28;20048;-41
2023/08/04 01:10:41;;;;;;;4.38;0.90;;;19.70;99.90;;;;;;5030319;28;20039;-40
2023/08/04 01:13:07;;;;;;;1.80;0.50;;;19.70;99.90;;;;;;5050939;28;20022;-41
2023/08/04 01:15:35;;;;;;;1.85;0.40;;;19.70;99.90;;;;;;5051110;28;20444;-42
2023/08/04 01:18:00;;;;;;;1.75;0.68;;;19.70;99.90;;;;;;5051003;28;20028;-40
2023/08/04 01:20:27;;;;;;;1.45;0.38;;;19.70;99.90;;;;;;5050799;28;20029;-41
2023/08/04 01:22:53;;;;;;;0.75;0.40;;;19.70;99.90;;;;;;5051558;28;20036;-38
2023/08/04 01:25:24;;;;;;;1.23;0.43;;;19.70;99.90;;;;;;5050862;28;20059;-41
2023/08/04 01:27:57;;;;;;;1.65;0.50;;;19.70;99.90;;;;;;5051015;28;20096;-39
2023/08/04 01:30:25;;;;;;;0.93;0.30;;;19.70;99.90;;;;;;5051067;28;20051;-41
2023/08/04 01:32:51;;;;;;;0.80;0.30;;;19.70;99.90;;;;;;5054812;28;20060;-41
2023/08/04 01:35:17;;;;;;;1.75;0.60;;;19.70;99.90;;;;;;5054888;28;20025;-42
2023/08/04 01:37:43;;;;;;;0.63;0.30;;;19.70;99.90;;;;;;5054847;28;20025;-41
2023/08/04 01:40:10;;;;;;;1.20;0.50;;;19.70;99.90;;;;;;5054977;28;20025;-40
2023/08/04 01:42:36;;;;;;;2.47;0.43;;;19.70;99.90;;;;;;5054691;28;20373;-42
2023/08/04 01:45:02;;;;;;;0.90;0.38;;;19.70;99.90;;;;;;5054815;28;20033;-41
2023/08/04 01:47:27;;;;;;;1.10;0.40;;;19.70;99.90;;;;;;5054724;28;20480;-41
2023/08/04 01:49:53;;;;;;;4.22;0.40;;;19.70;99.90;;;;;;5054314;28;20067;-40
2023/08/04 01:52:20;;;;;;;0.82;0.40;;;19.70;99.90;;;;;;5054623;28;20027;-41
2023/08/04 01:54:46;;;;;;;1.10;0.35;;;19.70;99.90;;;;;;5054371;28;20407;-41
2023/08/04 01:57:11;;;;;;;1.05;0.40;;;19.70;99.90;;;;;;5054498;28;20112;-41
2023/08/04 01:59:37;;;;;;;1.75;0.40;;;19.70;99.90;;;;;;5054168;28;20041;-40
2023/08/04 02:02:03;;;;;;;1.15;0.52;;;19.70;99.90;;;;;;5054406;28;20040;-40
2023/08/04 02:04:28;;;;;;;2.17;0.50;;;19.70;99.90;;;;;;5054132;28;20411;-41
2023/08/04 02:06:54;;;;;;;0.73;0.40;;;19.70;99.90;;;;;;5054292;28;20021;-41
2023/08/04 02:09:21;;;;;;;1.52;0.50;;;19.70;99.90;;;;;;5054006;28;20103;-40
2023/08/04 02:11:46;;;;;;;1.05;0.60;;;19.70;99.90;;;;;;5054217;28;20488;-41
2023/08/04 02:14:12;;;;;;;2.55;0.63;;;19.70;99.90;;;;;;5054057;28;20072;-40
2023/08/04 02:16:38;;;;;;;3.13;0.60;;;19.70;99.90;;;;;;5054112;28;20029;-41
2023/08/04 02:19:09;;;;;;;1.58;0.40;;;19.70;99.90;;;;;;5053754;28;20125;-40
2023/08/04 02:21:35;;;;;;;1.75;0.55;;;19.70;99.90;;;;;;5054045;28;20029;-40
2023/08/04 02:24:01;;;;;;;1.40;0.47;;;19.70;99.90;;;;;;5053631;28;20423;-41
2023/08/04 02:26:27;;;;;;;1.73;0.50;;;19.70;99.90;;;;;;5053915;28;20096;-41
2023/08/04 02:28:53;;;;;;;2.35;0.50;;;19.70;99.90;;;;;;5053756;28;20108;-40
2023/08/04 02:31:19;;;;;;;1.15;0.45;;;19.70;99.90;;;;;;5053807;28;20468;-40
2023/08/04 02:33:45;;;;;;;1.00;0.47;;;19.70;99.90;;;;;;5053711;28;20120;-40
2023/08/04 02:36:12;;;;;;;1.23;0.45;;;19.70;99.90;;;;;;5053747;28;20096;-40
2023/08/04 02:38:37;;;;;;;0.85;0.30;;;19.70;99.90;;;;;;5053636;28;20025;-40
2023/08/04 02:41:03;;;;;;;1.25;0.50;;;19.70;99.90;;;;;;5053182;28;20040;-40
2023/08/04 02:43:29;;;;;;;2.85;0.52;;;19.60;99.90;;;;;;5053299;28;20060;-40
2023/08/04 02:45:55;;;;;;;1.38;0.50;;;19.70;99.90;;;;;;5053508;28;20041;-41
2023/08/04 02:48:21;;;;;;;1.23;0.40;;;19.70;99.90;;;;;;5053421;28;20071;-42
2023/08/04 02:50:49;;;;;;;2.65;0.50;;;19.70;99.90;;;;;;5053250;28;20021;-40
2023/08/04 02:53:15;;;;;;;1.38;0.50;;;19.60;99.90;;;;;;5053347;28;20074;-41
2023/08/04 02:55:40;;;;;;;1.08;0.47;;;19.60;99.90;;;;;;5053408;28;20116;-41
2023/08/04 02:58:06;;;;;;;1.67;0.40;;;19.60;99.90;;;;;;5053390;28;20468;-40
2023/08/04 03:00:32;;;;;;;1.30;0.60;;;19.60;99.90;;;;;;5053165;28;20025;-41
2023/08/04 03:02:59;;;;;;;1.65;0.30;;;19.60;99.90;;;;;;5053489;28;20087;-40
2023/08/04 03:05:24;;;;;;;1.00;0.50;;;19.60;99.90;;;;;;5053152;28;20116;-41
2023/08/04 03:07:50;;;;;;;1.00;0.50;;;19.60;99.90;;;;;;5053201;28;20104;-40
2023/08/04 03:10:16;;;;;;;0.85;0.38;;;19.60;99.90;;;;;;5052887;28;20487;-40
2023/08/04 03:12:41;;;;;;;0.85;0.30;;;19.60;99.90;;;;;;5053029;28;20021;-41
2023/08/04 03:15:07;;;;;;;3.08;0.60;;;19.60;99.90;;;;;;5053384;28;20025;-41
2023/08/04 03:17:33;;;;;;;0.75;0.40;;;19.60;99.90;;;;;;5053381;28;20032;-41
2023/08/04 03:19:58;;;;;;;1.35;0.40;;;19.60;99.90;;;;;;5052672;28;20111;-40
2023/08/04 03:22:24;;;;;;;2.40;0.55;;;19.60;99.90;;;;;;5052614;28;20032;-41
2023/08/04 03:24:50;;;;;;;0.77;0.32;;;19.60;99.90;;;;;;5052766;28;20025;-41
2023/08/04 03:27:15;;;;;;;1.05;0.40;;;19.60;99.90;;;;;;5051463;28;20069;-41
2023/08/04 03:29:41;;;;;;;1.67;0.40;;;19.60;99.90;;;;;;5052483;28;20095;-41
2023/08/04 03:32:07;;;;;;;1.75;0.55;;;19.60;99.90;;;;;;5052827;28;20025;-41
2023/08/04 03:34:32;;;;;;;1.05;0.60;;;19.60;99.90;;;;;;5051136;28;20442;-41
2023/08/04 03:36:58;;;;;;;0.98;0.40;;;19.60;99.90;;;;;;5052541;28;20029;-41
2023/08/04 03:39:24;;;;;;;3.55;0.50;;;19.60;99.90;;;;;;5052336;28;20025;-41
2023/08/04 03:41:49;;;;;;;2.42;0.45;;;19.60;99.90;;;;;;5052523;28;20025;-41
2023/08/04 03:44:15;;;;;;;0.85;0.35;;;19.60;99.90;;;;;;5052661;28;20028;-40
2023/08/04 03:46:41;;;;;;;0.68;0.40;;;19.60;99.90;;;;;;5052446;28;20055;-41
2023/08/04 03:49:06;;;;;;;0.80;0.40;;;19.60;99.90;;;;;;5052080;28;20487;-40
2023/08/04 03:51:32;;;;;;;1.48;0.60;;;19.60;99.90;;;;;;5052293;28;20025;-39
2023/08/04 03:53:57;;;;;;;1.60;0.38;;;19.60;99.90;;;;;;5051442;28;20096;-40
2023/08/04 03:56:23;;;;;;;1.63;0.60;;;19.60;99.90;;;;;;5052212;28;20500;-41
2023/08/04 03:58:48;;;;;;;0.60;0.50;;;19.60;99.90;;;;;;5052054;28;20021;-41
2023/08/04 04:01:14;;;;;;;1.00;0.50;;;19.60;99.90;;;;;;5052086;28;20388;-40
2023/08/04 04:03:40;;;;;;;1.00;0.40;;;19.60;99.90;;;;;;5051973;28;20066;-41
2023/08/04 04:06:05;;;;;;;0.80;0.45;;;19.60;99.90;;;;;;5051835;28;20036;-42
2023/08/04 04:08:31;;;;;;;1.20;0.40;;;19.60;99.90;;;;;;5052079;28;20100;-41
2023/08/04 04:10:57;;;;;;;2.38;0.40;;;19.60;99.90;;;;;;5051825;28;20017;-39
2023/08/04 04:13:23;;;;;;;0.75;0.40;;;19.60;99.90;;;;;;5051873;28;20016;-40
2023/08/04 04:15:48;;;;;;;3.95;0.63;;;19.60;99.90;;;;;;5051940;28;20369;-41
2023/08/04 04:18:15;;;;;;;2.13;0.50;;;19.50;99.90;;;;;;5051740;28;20021;-39
2023/08/04 04:20:40;;;;;;;0.90;0.43;;;19.60;99.90;;;;;;5051664;28;20036;-41
2023/08/04 04:23:06;;;;;;;0.80;0.40;;;19.60;99.90;;;;;;5051667;28;20036;-41
2023/08/04 04:25:32;;;;;;;0.98;0.40;;;19.60;99.90;;;;;;5051740;28;20028;-41
2023/08/04 04:27:57;;;;;;;0.68;0.50;;;19.60;99.90;;;;;;5051654;28;20056;-41
2023/08/04 04:30:23;;;;;;;0.73;0.40;;;19.60;99.90;;;;;;5050148;28;20013;-41
2023/08/04 04:32:48;;;;;;;1.58;0.60;;;19.60;99.90;;;;;;5051466;28;20535;-41
2023/08/04 04:35:14;;;;;;;1.55;0.65;;;19.60;99.90;;;;;;5051465;28;20036;-41
2023/08/04 04:37:40;;;;;;;0.57;0.30;;;19.60;99.90;;;;;;5051536;28;20048;-40
2023/08/04 04:40:06;;;;;;;1.63;0.40;;;19.60;99.90;;;;;;5051380;28;20041;-41
2023/08/04 04:42:33;;;;;;;0.98;0.40;;;19.60;99.90;;;;;;5051389;28;20078;-41
2023/08/04 04:44:58;;;;;;;0.98;0.50;;;19.60;99.90;;;;;;5051292;28;20438;-41
2023/08/04 04:47:24;;;;;;;3.47;0.43;;;19.60;99.90;;;;;;5051319;28;20020;-41
2023/08/04 04:49:50;;;;;;;1.08;0.30;;;19.60;99.90;;;;;;5051568;28;20025;-40
2023/08/04 04:52:32;;;;;;;2.25;0.60;;;19.60;99.90;;;;;;5051253;28;20043;-41
2023/08/04 04:54:59;;;;;;;0.98;0.50;;;19.60;99.90;;;;;;5051318;28;20033;-40
2023/08/04 04:57:25;;;;;;;0.85;0.52;;;19.60;99.90;;;;;;5051269;28;20032;-41
2023/08/04 04:59:51;;;;;;;1.60;0.50;;;19.60;99.90;;;;;;5051004;28;20025;-41
2023/08/04 05:02:16;;;;;;;1.25;0.52;;;19.60;99.90;;;;;;5051040;28;20025;-41
2023/08/04 05:04:43;;;;;;;0.90;0.40;;;19.60;99.90;;;;;;5050753;28;20033;-40
2023/08/04 05:07:09;;;;;;;0.93;0.50;;;19.60;99.90;;;;;;5051187;28;20036;-40
2023/08/04 05:09:35;;;;;;;1.35;0.40;;;19.60;99.90;;;;;;5050923;28;20022;-41
2023/08/04 05:12:00;;;;;;;1.35;0.60;;;19.60;99.90;;;;;;5051065;28;20430;-40
2023/08/04 05:14:26;;;;;;;0.80;0.50;;;19.60;99.90;;;;;;5051020;28;20033;-41
2023/08/04 05:16:52;;;;;;;1.35;0.57;;;19.60;99.90;;;;;;5050950;28;20040;-40
2023/08/04 05:19:17;;;;;;;2.33;0.50;;;19.60;99.90;;;;;;5050821;28;20029;-42
2023/08/04 05:21:43;;;;;;;2.80;0.45;;;19.60;99.90;;;;;;5051237;28;20036;-42
2023/08/04 05:24:09;;;;;;;1.90;0.70;;;19.60;99.90;;;;;;5049507;28;20076;-41
2023/08/04 05:26:34;;;;;;;1.45;0.60;;;19.60;99.90;;;;;;5051076;28;20027;-40
2023/08/04 05:29:00;;;;;;;0.73;0.40;;;19.60;99.90;;;;;;5050852;28;20592;-42
2023/08/04 05:31:25;;;;;;;1.35;0.50;;;19.60;99.90;;;;;;5050767;28;20029;-41
2023/08/04 05:33:51;;;;;;;0.80;0.45;;;19.60;99.90;;;;;;5051060;28;20480;-41
2023/08/04 05:36:17;;;;;;;0.93;0.30;;;19.60;99.90;;;;;;5051053;28;20091;-41
2023/08/04 05:38:44;;;;;;;0.85;0.45;;;19.60;99.90;;;;;;5050825;28;20029;-39
2023/08/04 05:41:09;;;;;;;1.02;0.50;;;19.60;99.90;;;;;;5050758;28;20078;-42
2023/08/04 05:43:35;;;;;;;0.88;0.40;;;19.60;99.90;;;;;;5050776;28;20028;-40
2023/08/04 05:46:02;;;;;;;1.67;0.50;;;19.60;99.90;;;;;;5050529;28;20132;-41
2023/08/04 05:48:32;;;;;;;1.77;0.50;;;19.60;99.90;;;;;;5050720;28;20154;-40
2023/08/04 05:50:57;;;;;;;1.23;0.50;;;19.60;99.90;;;;;;5050532;28;20210;-41
2023/08/04 05:53:23;;;;;;;1.00;0.40;;;19.60;99.90;;;;;;5050629;28;20464;-40
2023/08/04 05:55:49;;;;;;;1.00;0.45;;;19.60;99.90;;;;;;5050728;28;20029;-40
2023/08/04 05:58:14;;;;;;;1.00;0.50;;;19.60;99.90;;;;;;5050640;28;20025;-40
2023/08/04 06:00:40;;;;;;;0.47;0.30;;;19.60;99.90;;;;;;5050341;28;20048;-40
2023/08/04 06:03:05;;;;;;;1.17;0.60;;;19.60;99.90;;;;;;5050596;28;20033;-40
2023/08/04 06:05:31;;;;;;;0.55;0.35;;;19.60;99.90;;;;;;5050570;28;20032;-40
2023/08/04 06:07:57;;;;;;;0.35;0.20;;;19.60;99.90;;;;;;5050524;28;20392;-39
2023/08/04 06:10:23;;;;;;;3.13;0.30;;;19.60;99.90;;;;;;5050396;28;20029;-41
2023/08/04 06:12:49;;;;;;;0.88;0.40;;;19.60;99.90;;;;;;5050481;28;20074;-41
2023/08/04 06:15:15;;;;;;;0.85;0.40;;;19.60;99.90;;;;;;5050483;28;20024;-41
2023/08/04 06:17:42;;;;;;;0.70;0.30;;;19.60;99.90;;;;;;5052686;28;20033;-41
2023/08/04 06:20:08;;;;;;;1.77;0.40;;;19.60;99.90;;;;;;5053833;28;20033;-41
2023/08/04 06:22:34;;;;;;;0.43;0.40;;;19.60;99.90;;;;;;5053849;28;20027;-39
2023/08/04 06:25:00;;;;;;;0.98;0.40;;;19.60;99.90;;;;;;5053939;28;20039;-40
2023/08/04 06:27:26;;;;;;;1.02;0.43;;;19.60;99.90;;;;;;5053962;28;20096;-40
2023/08/04 06:29:52;;;;;;;1.75;0.47;;;19.60;99.90;;;;;;5053837;28;20029;-39
2023/08/04 06:32:17;;;;;;;0.60;0.32;;;19.60;99.90;;;;;;5053845;28;20071;-42
2023/08/04 06:34:43;;;;;;;0.45;0.28;;;19.60;99.90;;;;;;5053758;28;20404;-41
2023/08/04 06:37:08;;;;;;;1.50;0.50;;;19.60;99.90;;;;;;5053809;28;20029;-40
2023/08/04 06:39:34;;;;;;;0.57;0.20;;;19.60;99.90;;;;;;5053848;28;20151;-41
2023/08/04 06:42:00;;;;;;;0.50;0.30;;;19.60;99.90;;;;;;5053638;28;20040;-40
2023/08/04 06:44:25;;;;;;;0.30;0.30;;;19.60;99.90;;;;;;5053439;28;20035;-41
2023/08/04 06:46:51;;;;;;;1.08;0.40;;;19.60;99.90;;;;;;5053701;28;20100;-40
2023/08/04 06:49:16;;;;;;;1.08;0.40;;;19.60;99.90;;;;;;5053356;28;20029;-41
2023/08/04 06:51:42;;;;;;;2.15;0.30;;;19.60;99.90;;;;;;5053522;28;20475;-41
2023/08/04 06:54:08;;;;;;;0.77;0.32;;;19.60;99.90;;;;;;5053384;28;20052;-40
2023/08/04 06:56:33;;;;;;;0.60;0.25;;;19.60;99.90;;;;;;5053380;28;20044;-39
2023/08/04 06:58:59;;;;;;;1.02;0.43;;;19.60;99.90;;;;;;5053012;28;20152;-41
2023/08/04 07:01:24;;;;;;;0.55;0.30;;;19.60;99.90;;;;;;5053328;28;20025;-41
2023/08/04 07:03:50;;;;;;;0.43;0.38;;;19.60;99.90;;;;;;5053467;28;20505;-40
2023/08/04 07:06:16;;;;;;;1.08;0.30;;;19.60;99.90;;;;;;5053152;28;20025;-39
2023/08/04 07:08:41;;;;;;;0.90;0.40;;;19.60;99.90;;;;;;5053130;28;20052;-41
2023/08/04 07:11:18;;;;;;;1.15;0.40;;;19.60;99.90;;;;;;5052991;28;20523;-43
2023/08/04 07:13:44;;;;;;;1.88;0.40;;;19.60;99.90;;;;;;5052977;28;20032;-41
2023/08/04 07:16:10;;;;;;;1.15;0.50;;;19.60;99.90;;;;;;5053082;28;20029;-42
2023/08/04 07:18:39;;;;;;;1.10;0.60;;;19.60;99.90;;;;;;5052989;28;20079;-42
2023/08/04 07:21:10;;;;;;;0.43;0.25;;;19.60;99.90;;;;;;5052765;28;20029;-39
2023/08/04 07:23:36;;;;;;;0.50;0.20;;;19.60;99.90;;;;;;5053437;28;20029;-41
2023/08/04 07:26:03;;;;;;;1.13;0.40;;;19.60;99.90;;;;;;5052701;28;20124;-41
2023/08/04 07:28:30;;;;;;;0.68;0.30;;;19.60;99.90;;;;;;5052790;28;20371;-41
2023/08/04 07:30:56;;;;;;;0.80;0.40;;;19.60;99.90;;;;;;5052580;28;20120;-39
2023/08/04 07:33:22;;;;;;;0.98;0.40;;;19.60;99.90;;;;;;5052614;28;20029;-41
2023/08/04 07:35:55;;;;;;;0.93;0.30;;;19.60;99.90;;;;;;5052612;28;20381;-40
2023/08/04 07:38:22;;;;;;;2.72;0.70;;;19.60;99.90;;;;;;5053017;28;20033;-40
2023/08/04 07:40:47;;;;;;;2.20;0.47;;;19.70;99.90;;;;;;5068259;28;20090;-44
2023/08/04 07:43:13;;;;;;;2.95;1.00;;;19.60;99.90;;;;;;5052343;28;20025;-44
2023/08/04 07:45:40;;;;;;;3.15;0.63;;;19.50;99.90;;;;;;5052345;28;20032;-43
2023/08/04 07:48:05;;;;;;;2.13;0.60;;;19.50;99.90;;;;;;5052428;28;20036;-43
2023/08/04 07:50:31;;;;;;;4.13;0.80;;;19.50;99.90;;;;;;5052091;28;20028;-42
2023/08/04 07:52:57;;;;;;;1.58;0.60;;;19.50;99.90;;;;;;5052164;28;20032;-46
2023/08/04 07:55:22;;;;;;;1.90;0.57;;;19.50;99.90;;;;;;5052596;28;20025;-43
2023/08/04 07:57:48;;;;;;;3.08;0.80;;;19.60;99.90;;;;;;5052444;28;20515;-42
2023/08/04 08:00:14;;;;;;;1.77;0.52;;;19.60;99.90;;;;;;5052083;28;20506;-44
2023/08/04 08:02:40;;;;;;;2.42;0.70;;;19.60;99.90;;;;;;5052121;28;20025;-44
2023/08/04 08:05:07;;;;;;;3.28;0.70;;;19.60;99.90;;;;;;5052052;28;20021;-47
2023/08/04 08:07:34;;;;;;;2.08;0.65;;;19.60;99.90;;;;;;5051952;28;20036;-43
2023/08/04 08:10:00;;;;;;;2.92;0.75;;;19.60;99.90;;;;;;5051828;28;20029;-46
2023/08/04 08:12:26;;;;;;;1.42;0.50;;;19.60;99.90;;;;;;5051905;28;20025;-46
2023/08/04 08:14:51;;;;;;;1.67;0.73;;;19.70;99.90;;;;;;5051909;28;20480;-43
2023/08/04 08:17:18;;;;;;;2.50;0.70;;;19.70;99.90;;;;;;5052246;28;20083;-41
2023/08/04 08:19:43;;;;;;;1.90;0.70;;;19.70;99.90;;;;;;5051706;28;20036;-43
2023/08/04 08:22:09;;;;;;;2.75;0.50;;;19.70;99.90;;;;;;5051640;28;20028;-43
2023/08/04 08:24:35;;;;;;;1.77;0.55;;;19.70;99.90;;;;;;5051453;28;20395;-41
2023/08/04 08:27:01;;;;;;;1.08;0.50;;;19.70;99.90;;;;;;5051679;28;20029;-43
2023/08/04 08:29:27;;;;;;;1.80;0.50;;;19.70;99.90;;;;;;5051645;28;20108;-43
2023/08/04 08:31:52;;;;;;;3.05;0.73;;;19.70;99.90;;;;;;5051613;28;20028;-44
2023/08/04 08:34:18;;;;;;;1.42;0.50;;;19.80;99.90;;;;;;5051482;28;20029;-42
2023/08/04 08:36:44;;;;;;;1.02;0.50;;;19.80;99.90;;;;;;5051484;28;20060;-41
2023/08/04 08:39:09;;;;;;;1.85;0.52;;;19.80;99.90;;;;;;5051055;28;20071;-44
2023/08/04 08:41:35;;;;;;;2.20;0.57;;;19.80;99.90;;;;;;5051521;28;20370;-43
2023/08/04 08:44:01;;;;;;;1.92;0.52;;;19.80;99.90;;;;;;5051363;28;20025;-45
2023/08/04 08:46:26;;;;;;;1.15;0.52;;;19.80;99.90;;;;;;5051314;28;20553;-44
2023/08/04 08:48:58;;;;;;;1.38;0.43;;;19.80;99.90;;;;;;5051469;28;20059;-44
2023/08/04 08:51:25;;;;;;;1.45;0.50;;;19.80;99.90;;;;;;5051237;28;20499;-44
2023/08/04 08:53:52;;;;;;;2.25;0.40;;;19.80;99.90;;;;;;5051228;28;20032;-43
2023/08/04 08:56:18;;;;;;;1.25;0.47;;;19.80;99.90;;;;;;5051470;28;20106;-43
2023/08/04 08:58:45;;;;;;;1.75;0.50;;;19.90;99.90;;;;;;5051202;28;20025;-44
2023/08/04 09:01:11;;;;;;;1.52;0.50;;;19.90;99.90;;;;;;5051132;28;20040;-42
2023/08/04 09:03:38;;;;;;;2.42;0.52;;;19.90;99.90;;;;;;5051192;28;20396;-43
2023/08/04 09:06:04;;;;;;;1.27;0.50;;;19.90;99.90;;;;;;5051037;28;20039;-42
2023/08/04 09:08:31;;;;;;;0.73;0.40;;;19.90;99.90;;;;;;5051209;28;20041;-43
2023/08/04 09:11:00;;;;;;;1.55;0.55;;;19.90;99.90;;;;;;5051066;28;20100;-42
2023/08/04 09:13:26;;;;;;;1.00;0.45;;;19.90;99.90;;;;;;5051206;28;20025;-43
2023/08/04 09:16:00;;;;;;;1.50;0.45;;;19.90;99.90;;;;;;5051138;28;20033;-42
2023/08/04 09:18:27;;;;;;;1.65;0.50;;;19.90;99.90;;;;;;5051002;28;20387;-44
2023/08/04 09:21:01;;;;;;;1.90;0.55;;;19.90;99.90;;;;;;5050919;28;20033;-43
2023/08/04 09:23:30;;;;;;;1.08;0.50;;;19.90;99.90;;;;;;5050906;28;20041;-43
2023/08/04 09:25:56;;;;;;;0.95;0.45;;;19.90;99.90;;;;;;5050885;28;20116;-44
2023/08/04 09:28:22;;;;;;;1.85;0.40;;;19.90;99.90;;;;;;5050991;28;20096;-42
2023/08/04 09:31:03;;;;;;;1.52;0.30;;;19.90;99.90;;;;;;5050751;28;20017;-43
2023/08/04 09:33:29;;;;;;;1.52;0.52;;;19.90;99.90;;;;;;5050826;28;20051;-44
2023/08/04 09:36:17;;;;;;;1.95;0.52;;;19.90;99.90;;;;;;5050905;28;20028;-41
2023/08/04 09:38:43;;;;;;;1.55;0.60;;;19.90;99.90;;;;;;5050771;28;20021;-44
2023/08/04 09:41:13;;;;;;;1.15;0.40;;;19.90;99.90;;;;;;5050649;28;20024;-43
2023/08/04 09:43:47;;;;;;;1.42;0.45;;;19.90;99.90;;;;;;5050723;28;20040;-42
2023/08/04 09:46:13;;;;;;;0.95;0.40;;;19.90;99.90;;;;;;5050754;28;20064;-42
2023/08/04 09:48:39;;;;;;;1.02;0.40;;;19.90;99.90;;;;;;5050736;28;20082;-44
2023/08/04 09:51:08;;;;;;;1.15;0.40;;;19.90;99.90;;;;;;5050575;28;20029;-42
2023/08/04 09:53:48;;;;;;;1.42;0.50;;;19.80;99.90;;;;;;5054381;28;20029;-43
2023/08/04 09:56:16;;;;;;;1.23;0.50;;;19.90;99.90;;;;;;5053381;28;20041;-42
2023/08/04 09:58:42;;;;;;;1.85;0.70;;;19.90;99.90;;;;;;5054895;28;20378;-46
2023/08/04 10:01:08;;;;;;;0.85;0.50;;;19.90;99.90;;;;;;5054470;28;20029;-43
2023/08/04 10:03:37;;;;;;;0.82;0.47;;;19.90;99.90;;;;;;5054350;28;20029;-45
2023/08/04 10:06:05;;;;;;;1.23;0.43;;;19.90;99.90;;;;;;5054278;28;20031;-43
2023/08/04 10:08:33;;;;;;;1.33;0.50;;;19.90;99.90;;;;;;5054124;28;20021;-40
2023/08/04 10:11:00;;;;;;;4.88;1.10;;;20.00;99.90;;;;;;5054058;28;20028;-41
2023/08/04 10:13:33;;;;;;;3.15;0.90;;;20.10;99.90;;;;;;5054125;28;20025;-40
2023/08/04 10:16:03;;;;;;;1.73;0.50;;;20.10;99.90;;;;;;5052906;28;20025;-42
2023/08/04 10:18:51;;;;;;;2.10;0.65;;;20.10;99.90;;;;;;5054201;28;20021;-41
2023/08/04 10:21:20;;;;;;;1.73;0.43;;;20.10;99.90;;;;;;5054231;28;20442;-40
2023/08/04 10:23:46;;;;;;;1.02;0.43;;;20.10;99.90;;;;;;5053818;28;20033;-40
2023/08/04 10:26:12;;;;;;;2.53;0.60;;;20.10;99.90;;;;;;5054133;28;20024;-40
2023/08/04 10:29:06;;;;;;;0.95;0.40;;;20.10;99.90;;;;;;5053961;28;20021;-40
2023/08/04 10:31:53;;;;;;;1.70;0.50;;;20.20;99.90;;;;;;5054263;28;20028;-40
2023/08/04 10:34:28;;;;;;;3.80;0.60;;;20.10;99.90;;;;;;5053874;28;20017;-40
2023/08/04 10:37:09;;;;;;;0.95;0.50;;;20.10;99.90;;;;;;5053956;28;20021;-41
2023/08/04 10:39:42;;;;;;;2.40;0.80;;;20.10;99.90;;;;;;5053395;28;20082;-41
2023/08/04 10:42:26;;;;;;;4.45;0.45;;;20.10;99.90;;;;;;5053785;28;20699;-40
2023/08/04 10:45:07;;;;;;;1.30;0.60;;;20.10;99.90;;;;;;5053391;28;20033;-41
2023/08/04 10:47:51;;;;;;;2.20;0.50;;;20.10;99.90;;;;;;5053624;28;20025;-40
2023/08/04 10:50:17;;;;;;;1.52;0.45;;;20.10;99.90;;;;;;5053348;28;20025;-40
2023/08/04 10:52:43;;;;;;;1.35;0.75;;;20.10;99.90;;;;;;5053656;28;20500;-41
2023/08/04 10:55:13;;;;;;;2.22;0.73;;;20.10;99.90;;;;;;5053408;28;20033;-41
2023/08/04 10:57:41;;;;;;;1.77;0.65;;;20.10;99.90;;;;;;5053370;28;20056;-40
2023/08/04 11:00:09;;;;;;;1.75;0.50;;;20.10;99.90;;;;;;5053145;28;20030;-40
2023/08/04 11:02:36;;;;;;;2.83;0.70;;;20.10;99.90;;;;;;5052591;28;20513;-41
2023/08/04 11:05:05;;;;;;;4.28;0.63;;;20.10;99.90;;;;;;5053130;28;20028;-42
2023/08/04 11:07:31;;;;;;;4.25;0.90;;;20.00;99.90;;;;;;5053177;28;20377;-43
2023/08/04 11:10:04;;;;;;;2.08;0.70;;;20.00;99.90;;;;;;5053232;28;20029;-43
2023/08/04 11:12:31;;;;;;;3.20;0.50;;;19.90;99.90;;;;;;5053112;28;20071;-40
2023/08/04 11:14:58;;;;;;;2.95;0.50;;;19.90;99.90;;;;;;5053004;28;20021;-42
2023/08/04 11:17:23;;;;;;;2.78;0.63;;;20.00;99.90;;;;;;5052943;28;20063;-43
2023/08/04 11:19:50;;;;;;;1.08;0.50;;;20.00;99.90;;;;;;5052971;28;20048;-44
2023/08/04 11:22:24;;;;;;;2.22;0.60;;;20.00;99.90;;;;;;5052896;28;20517;-43
2023/08/04 11:24:51;;;;;;;2.20;0.65;;;20.00;99.90;;;;;;5052819;28;20029;-43
2023/08/04 11:27:17;;;;;;;3.13;0.73;;;20.00;99.90;;;;;;5052855;28;20033;-44
2023/08/04 11:29:43;;;;;;;1.85;0.68;;;20.00;99.90;;;;;;5052480;28;20541;-43
2023/08/04 11:32:10;;;;;;;0.68;0.40;;;20.00;99.90;;;;;;5052795;28;20541;-41
2023/08/04 11:34:38;;;;;;;2.58;0.50;;;20.00;99.90;;;;;;5052702;28;20100;-44
2023/08/04 11:37:04;;;;;;;3.95;0.68;;;20.00;99.90;;;;;;5052593;28;20033;-44
2023/08/04 11:39:29;;;;;;;1.80;0.43;;;20.00;99.90;;;;;;5052494;28;20673;-42
2023/08/04 11:41:55;;;;;;;1.55;0.55;;;20.00;99.90;;;;;;5052596;28;20021;-43
2023/08/04 11:44:22;;;;;;;1.73;0.50;;;20.10;99.90;;;;;;5052224;28;20029;-44
2023/08/04 11:46:48;;;;;;;1.40;0.45;;;20.10;99.90;;;;;;5052925;28;20414;-42
2023/08/04 11:49:14;;;;;;;1.67;0.52;;;20.10;99.90;;;;;;5052307;28;20017;-43
2023/08/04 11:51:43;;;;;;;1.50;0.50;;;20.10;99.90;;;;;;5052355;28;20082;-43
2023/08/04 11:54:20;;;;;;;1.58;0.47;;;20.10;99.90;;;;;;5052631;28;20017;-43
2023/08/04 11:56:46;;;;;;;1.08;0.50;;;20.10;99.90;;;;;;5052184;28;20385;-42
2023/08/04 11:59:12;;;;;;;1.73;0.50;;;20.20;99.90;;;;;;5052159;28;20091;-42
2023/08/04 12:01:38;;;;;;;2.30;0.50;;;20.20;99.90;;;;;;5052177;28;20083;-43
2023/08/04 12:04:22;;;;;;;1.42;0.32;;;20.20;99.90;;;;;;5052042;28;20033;-43
2023/08/04 12:06:57;;;;;;;0.65;0.40;;;20.20;99.90;;;;;;5052194;28;20056;-44
2023/08/04 12:09:23;;;;;;;2.60;0.50;;;20.20;99.90;;;;;;5051845;28;20132;-42
2023/08/04 12:11:49;;;;;;;1.50;0.40;;;20.20;99.90;;;;;;5052250;28;20447;-42
2023/08/04 12:14:15;;;;;;;1.35;0.40;;;20.20;99.90;;;;;;5051080;28;20024;-41
2023/08/04 12:16:55;;;;;;;0.68;0.28;;;20.20;99.90;;;;;;5052213;28;20072;-42
2023/08/04 12:19:22;;;;;;;1.73;0.63;;;20.20;99.90;;;;;;5051736;28;20025;-42
2023/08/04 12:21:53;;;;;;;1.25;0.35;;;20.20;99.90;;;;;;5051628;28;20048;-44
2023/08/04 12:24:19;;;;;;;1.55;0.65;;;20.20;99.90;;;;;;5051620;28;20047;-43
2023/08/04 12:26:45;;;;;;;1.70;0.60;;;20.20;99.90;;;;;;5051864;28;20017;-41
2023/08/04 12:29:12;;;;;;;0.68;0.40;;;20.20;99.90;;;;;;5051595;28;20025;-43
2023/08/04 12:31:38;;;;;;;2.05;0.57;;;20.20;99.90;;;;;;5051713;28;20025;-43
2023/08/04 12:34:08;;;;;;;0.82;0.40;;;20.20;99.90;;;;;;5051490;28;20036;-43
2023/08/04 12:36:34;;;;;;;0.95;0.47;;;20.20;99.90;;;;;;5051566;28;20492;-42
2023/08/04 12:39:00;;;;;;;1.23;0.40;;;20.20;99.90;;;;;;5051345;28;20063;-44
2023/08/04 12:41:26;;;;;;;0.50;0.30;;;20.20;99.90;;;;;;5051652;28;20530;-42
2023/08/04 12:43:51;;;;;;;0.70;0.30;;;20.20;99.90;;;;;;5051373;28;20040;-42
2023/08/04 12:46:17;;;;;;;0.90;0.40;;;20.20;99.90;;;;;;5051362;28;20025;-43
2023/08/04 12:48:42;;;;;;;3.17;0.90;;;20.10;99.90;;;;;;5051269;28;20040;-43